Terminal Aerodrome Forecast
Issued by NWS

Home | Current Version | Previous Version | Text Only | Print | Product List | Glossary On
Versions: 1 2 3 4 5 6 7 8 9 10 11 12 13 14 15 16 17 18 19 20 21 22 23 24
000
FTPA31 PHFO 030500
TAFKOA
TAF
PHKO 030520Z 0306/0406 12005KT P6SM SCT050
     FM032000 22008KT P6SM SCT060 BKN250
     FM040400 19007KT P6SM BKN050 OVC200=

USA.gov is the U.S. government's official web portal to all federal, state and local government web resources and services.